Briefing drone pour Chazelles-sur-lyon

Rechercher une autre localisation

Conditions de vol :


Nous sommes le : Mardi 27 septembre 2022
Il est 13:54 UTC (15:54 LT)

Lever de soleil : 05:09 UTC (07:09 LT)
Coucher de soleil : 17:57 UTC (19:57 LT)

Météo

L'essentiel des conditions de vol

VIGILANCE MÉTÉO FRANCE - Loire (42)
Pas de vigilances particulieres
METAR de LFMH
LFMH 271330Z AUTO 27010KT 220V290 9999 FEW025 SCT052 OVC064 14/06 Q1009

Date d'émission: 27/09/2022
Heure d'émission: 13:30 UTC
Vent: 270° (variable du 220° au 290°) pour 10 KT (19 km/h)
Visibilité horizontale: > 10 km
Plafond :
- Peu de nuages à 2500ft (762m)
- Nuages épars à 5200ft (1585m)
- Couvert à 6400ft (1951m)
Température: 14 °C
Point de rosée: 6 °C
Humidité: 59%
Pression (QNH): 1009 hPa
TAF de LFMH
LFMH 161901Z 1619/1712 CNL

Conditions prévues :

Heure d'émission : Bulletin éffectué le 16 à 19:00 UTC
Prévision : Valide du 16 a 19:00 UTC au 17 a 12:00 UTC
Nuages : à 0ft (0 m)
WEBCAM POUR CHAZELLES-SUR-LYON

Réglementation

Voler en sécurité

CARTES AERONAUTIQUE 1/500.000
CARTE AZBA (Reseau basse altitude)
CARTES VAC (LFMH)
SUP AIP




Chargement des AIP...
NOTAM (CHAZELLES-SUR-LYON + Terrain à proximité / FIR )




Chargement des NOTAMS...
CONTACT PREFECTURE 42


Avertissement : Les données mises à disposition sont indicatives. Oxygène Drone ne pourra être tenu responsable de dégâts causés aux biens et aux personnes.